Time;durP1;ratioP1;P1;durP2;ratioP2;P2;SDS_P1;SDS_P2;PMS_P1;PMS_P2;Temp;Humidity;BMP_temperature;BMP_pressure;BME280_temperature;BME280_humidity;BME280_pressure;Samples;Min_cycle;Max_cycle;Signal;HPM_P1;HPM_P2
2023/01/19 00:00:10;;;;;;;2.90;1.27;;;0.60;55.10;;;;;;4941681;29;20435;-71
2023/01/19 00:02:39;;;;;;;0.50;0.10;;;;;;;;;;4940215;29;21011;-72
2023/01/19 00:05:07;;;;;;;0.50;0.10;;;0.60;60.60;;;;;;4942041;29;20495;-71
2023/01/19 00:07:35;;;;;;;0.50;0.10;;;0.60;61.80;;;;;;4967433;23;20505;-74
2023/01/19 00:10:03;;;;;;;0.50;0.10;;;0.60;79.90;;;;;;4972648;28;20449;-73
2023/01/19 00:12:31;;;;;;;0.50;0.10;;;0.60;71.20;;;;;;4989293;28;20429;-74
2023/01/19 00:15:01;;;;;;;0.50;0.10;;;0.60;71.70;;;;;;4986905;28;20430;-73
2023/01/19 00:17:28;;;;;;;0.50;0.10;;;0.60;71.70;;;;;;4981328;28;20473;-73
2023/01/19 00:19:58;;;;;;;0.80;0.60;;;0.60;72.10;;;;;;4973327;28;20446;-74
2023/01/19 00:22:25;;;;;;;0.60;0.50;;;0.60;73.60;;;;;;4972959;28;20509;-73
2023/01/19 00:24:53;;;;;;;0.50;0.20;;;0.60;73.80;;;;;;4974215;28;20445;-74
2023/01/19 00:27:21;;;;;;;8.77;2.33;;;0.60;74.40;;;;;;4976094;28;20473;-74
2023/01/19 00:29:50;;;;;;;0.50;0.13;;;0.50;75.10;;;;;;4976780;28;20458;-74
2023/01/19 00:32:19;;;;;;;0.50;0.10;;;0.50;76.80;;;;;;4976253;28;20446;-74
2023/01/19 00:34:48;;;;;;;1.07;0.70;;;0.50;77.80;;;;;;4975339;28;20447;-75
2023/01/19 00:37:17;;;;;;;0.60;0.40;;;0.40;78.60;;;;;;4973912;28;20505;-75
2023/01/19 00:39:44;;;;;;;0.50;0.10;;;0.50;81.30;;;;;;4973889;28;20450;-75
2023/01/19 00:44:58;;;;;;;0.50;0.10;;;0.40;86.00;;;;;;4954377;28;20467;-73
2023/01/19 00:47:28;;;;;;;1.13;1.07;;;0.40;79.20;;;;;;4953514;28;20506;-74
2023/01/19 00:49:55;;;;;;;0.63;0.50;;;0.50;87.90;;;;;;4952794;28;20870;-73
2023/01/19 00:52:23;;;;;;;0.50;0.10;;;0.40;88.50;;;;;;4953023;28;20528;-76
2023/01/19 00:54:51;;;;;;;0.50;0.10;;;0.40;90.30;;;;;;4952994;28;20450;-73
2023/01/19 00:57:19;;;;;;;0.50;0.30;;;0.40;91.00;;;;;;4952051;28;20477;-73
2023/01/19 00:59:47;;;;;;;0.60;0.40;;;0.40;91.90;;;;;;4952980;28;20961;-73
2023/01/19 05:01:02;;;;;;;0.53;0.30;;;0.70;99.90;;;;;;5820383;23;20628;-72
2023/01/19 05:03:30;;;;;;;0.67;0.40;;;0.70;99.90;;;;;;4983645;28;20446;-72
2023/01/19 05:05:58;;;;;;;1.70;1.60;;;0.50;99.90;;;;;;4981725;28;20474;-72
2023/01/19 05:08:25;;;;;;;4.93;3.40;;;0.40;99.90;;;;;;4980770;28;20453;-73
2023/01/19 05:10:53;;;;;;;0.93;0.93;;;0.40;99.90;;;;;;4979130;28;20470;-72
2023/01/19 05:13:21;;;;;;;3.13;1.03;;;0.40;99.90;;;;;;4971029;28;20443;-71
2023/01/19 05:15:49;;;;;;;0.60;0.20;;;0.40;99.90;;;;;;4975204;28;20446;-73
2023/01/19 05:18:19;;;;;;;6.20;3.83;;;;;;;;;;4981007;28;20552;-72
2023/01/19 05:20:47;;;;;;;2.10;1.90;;;0.50;99.90;;;;;;4981363;28;20458;-72
2023/01/19 05:23:15;;;;;;;2.30;0.83;;;0.50;99.90;;;;;;4980846;28;20529;-72
2023/01/19 05:25:43;;;;;;;3.80;2.93;;;0.50;99.90;;;;;;4980959;28;20509;-72
2023/01/19 05:28:11;;;;;;;1.90;1.60;;;0.50;99.90;;;;;;4981272;28;20785;-72
2023/01/19 05:30:39;;;;;;;1.90;1.80;;;0.60;99.90;;;;;;4978641;28;20473;-72
2023/01/19 05:33:07;;;;;;;1.23;0.60;;;0.60;99.90;;;;;;4968667;28;20464;-73
2023/01/19 05:35:36;;;;;;;0.50;0.30;;;0.60;99.90;;;;;;4977724;28;20457;-71
2023/01/19 05:38:04;;;;;;;0.60;0.47;;;0.70;99.90;;;;;;4979011;28;20453;-73
2023/01/19 05:40:32;;;;;;;20.83;3.90;;;0.80;99.90;;;;;;4979651;28;20450;-71
2023/01/19 05:43:03;;;;;;;0.50;0.10;;;0.80;99.90;;;;;;4979431;28;20472;-72
2023/01/19 05:45:32;;;;;;;3.53;3.20;;;0.90;99.90;;;;;;4979905;28;20504;-72
2023/01/19 05:48:00;;;;;;;0.50;0.10;;;0.90;99.90;;;;;;4981510;28;20486;-73
2023/01/19 05:50:28;;;;;;;5.90;2.40;;;0.80;99.90;;;;;;4983374;28;20526;-72
2023/01/19 05:52:58;;;;;;;0.50;0.10;;;0.90;99.90;;;;;;4989566;28;20535;-72
2023/01/19 05:55:29;;;;;;;4.43;2.10;;;1.00;99.90;;;;;;4985880;28;20525;-72
2023/01/19 05:57:56;;;;;;;1.80;1.70;;;1.00;99.90;;;;;;4979639;28;20442;-73
2023/01/19 06:00:26;;;;;;;0.70;0.33;;;1.00;99.90;;;;;;4978747;28;20449;-73
2023/01/19 06:02:54;;;;;;;3.83;3.53;;;1.00;99.90;;;;;;4980552;28;20474;-72
2023/01/19 06:05:22;;;;;;;3.07;1.77;;;1.10;99.90;;;;;;4979393;28;20514;-72
2023/01/19 06:07:50;;;;;;;0.93;0.30;;;1.10;99.90;;;;;;4980344;28;20540;-73
2023/01/19 06:10:19;;;;;;;0.53;0.27;;;1.10;99.90;;;;;;4979738;28;20496;-73
2023/01/19 06:12:47;;;;;;;1.80;0.73;;;;;;;;;;4980616;28;20467;-73
2023/01/19 06:15:15;;;;;;;1.17;1.07;;;1.20;99.90;;;;;;4979956;28;20446;-72
2023/01/19 06:17:43;;;;;;;0.70;0.70;;;1.20;99.90;;;;;;4979051;28;20533;-73
2023/01/19 06:20:13;;;;;;;0.50;0.10;;;1.20;99.90;;;;;;4978782;28;20979;-73
2023/01/19 06:22:41;;;;;;;0.60;0.40;;;1.30;99.90;;;;;;4980535;28;20470;-73
2023/01/19 06:25:10;;;;;;;0.60;0.50;;;1.30;99.90;;;;;;4978747;28;20481;-74
2023/01/19 06:27:43;;;;;;;2.00;1.07;;;1.30;99.90;;;;;;4976404;28;20533;-72
2023/01/19 06:30:12;;;;;;;2.83;1.17;;;1.30;99.90;;;;;;4978633;28;20517;-73
2023/01/19 06:32:41;;;;;;;0.50;0.10;;;;;;;;;;4931712;28;20644;-73
2023/01/19 06:35:09;;;;;;;1.80;0.37;;;1.30;99.90;;;;;;4954103;29;20451;-73
2023/01/19 06:37:37;;;;;;;0.50;0.30;;;1.30;99.90;;;;;;4960732;29;20471;-73
2023/01/19 06:40:07;;;;;;;0.50;0.20;;;1.30;99.90;;;;;;4961571;28;20469;-73
2023/01/19 06:42:35;;;;;;;1.37;1.13;;;1.30;99.90;;;;;;4961744;28;20474;-73
2023/01/19 06:45:05;;;;;;;2.43;2.00;;;1.30;99.90;;;;;;4960451;28;20451;-71
2023/01/19 06:47:33;;;;;;;0.50;0.10;;;1.30;99.90;;;;;;4961705;28;20483;-73
2023/01/19 06:50:02;;;;;;;0.83;0.83;;;1.30;99.90;;;;;;4960633;28;20462;-70
2023/01/19 06:52:30;;;;;;;0.97;0.20;;;1.40;99.90;;;;;;4959776;28;20479;-73
2023/01/19 06:54:58;;;;;;;2.43;1.70;;;1.40;99.90;;;;;;4962059;28;20455;-72
2023/01/19 06:57:26;;;;;;;0.77;0.67;;;;;;;;;;4959253;28;20553;-73
2023/01/19 06:59:57;;;;;;;0.90;0.90;;;1.30;99.90;;;;;;4958620;28;20518;-70
2023/01/19 07:02:26;;;;;;;0.50;0.10;;;1.40;99.90;;;;;;4949954;28;20863;-72
2023/01/19 07:04:55;;;;;;;8.43;4.03;;;1.40;99.90;;;;;;4953608;29;20467;-72
2023/01/19 07:07:23;;;;;;;1.87;1.70;;;1.30;99.90;;;;;;4950039;28;20699;-73
2023/01/19 07:09:52;;;;;;;0.50;0.10;;;1.30;99.90;;;;;;4959317;28;20447;-72
2023/01/19 07:12:21;;;;;;;0.80;0.50;;;1.30;99.90;;;;;;4959718;29;20475;-72
2023/01/19 07:14:49;;;;;;;5.13;4.73;;;1.30;99.90;;;;;;4958229;29;20461;-71
2023/01/19 07:17:17;;;;;;;3.60;0.93;;;1.30;99.90;;;;;;4956860;28;20447;-72
2023/01/19 07:19:46;;;;;;;0.50;0.20;;;1.30;99.90;;;;;;4957246;28;20459;-73
2023/01/19 07:22:14;;;;;;;0.50;0.10;;;1.30;99.90;;;;;;4957593;28;20482;-72
2023/01/19 07:24:42;;;;;;;0.80;0.70;;;1.30;99.90;;;;;;4958177;28;20451;-72
2023/01/19 07:27:11;;;;;;;0.50;0.10;;;1.40;99.90;;;;;;4961631;28;20478;-73
2023/01/19 07:29:39;;;;;;;2.40;1.80;;;1.40;99.90;;;;;;4956991;28;21001;-73
2023/01/19 07:32:07;;;;;;;3.37;2.30;;;1.50;99.90;;;;;;4956648;28;20883;-72
2023/01/19 07:34:35;;;;;;;8.33;7.57;;;1.50;99.90;;;;;;4956182;28;20452;-71
2023/01/19 07:37:04;;;;;;;0.50;0.20;;;1.50;99.90;;;;;;4956628;28;20439;-71
2023/01/19 07:39:35;;;;;;;0.50;0.10;;;1.50;99.90;;;;;;4956163;28;20519;-71
2023/01/19 07:42:03;;;;;;;0.97;0.53;;;1.60;99.90;;;;;;4955947;28;20479;-73
2023/01/19 07:44:31;;;;;;;1.00;0.80;;;1.60;99.90;;;;;;4956944;28;20447;-73
2023/01/19 07:46:59;;;;;;;3.60;3.13;;;1.70;99.90;;;;;;4957116;28;20459;-72
2023/01/19 07:49:27;;;;;;;0.60;0.40;;;1.70;99.90;;;;;;4957108;28;20447;-70
2023/01/19 07:51:55;;;;;;;0.50;0.10;;;1.70;99.90;;;;;;4961528;28;20506;-72
2023/01/19 07:54:25;;;;;;;0.50;0.10;;;1.80;99.90;;;;;;4965410;28;20455;-72
2023/01/19 07:56:53;;;;;;;0.50;0.10;;;1.80;99.90;;;;;;4964969;28;20482;-72
2023/01/19 07:59:21;;;;;;;0.70;0.33;;;1.80;99.90;;;;;;4960206;28;20486;-72
2023/01/19 08:01:49;;;;;;;0.50;0.20;;;1.90;99.90;;;;;;4961124;28;20511;-73
2023/01/19 08:04:18;;;;;;;0.50;0.20;;;1.90;99.90;;;;;;4962515;28;20813;-73
2023/01/19 08:06:47;;;;;;;0.50;0.30;;;2.00;99.90;;;;;;4961472;28;20641;-72
2023/01/19 08:09:15;;;;;;;1.23;1.10;;;;;;;;;;4957577;28;20489;-72
2023/01/19 08:11:44;;;;;;;2.00;1.90;;;2.00;99.90;;;;;;4955595;28;20889;-72
2023/01/19 08:14:12;;;;;;;4.53;4.23;;;2.00;99.90;;;;;;4956871;28;20465;-73
2023/01/19 08:16:41;;;;;;;0.50;0.30;;;2.10;99.90;;;;;;4956273;28;20537;-73
2023/01/19 08:19:09;;;;;;;0.50;0.10;;;2.10;99.90;;;;;;4957516;28;20447;-73
2023/01/19 08:21:38;;;;;;;4.53;3.50;;;2.20;99.90;;;;;;4958896;28;20471;-72
2023/01/19 08:24:06;;;;;;;3.10;2.40;;;2.20;99.90;;;;;;4956568;28;20475;-72
2023/01/19 08:26:35;;;;;;;3.77;3.40;;;2.20;99.90;;;;;;4957488;28;20451;-72
2023/01/19 08:29:05;;;;;;;1.07;0.53;;;2.30;99.90;;;;;;4956176;28;20475;-74
2023/01/19 08:31:36;;;;;;;0.50;0.10;;;2.40;99.90;;;;;;4956367;28;20866;-73
2023/01/19 08:34:04;;;;;;;0.63;0.50;;;2.30;99.90;;;;;;4955951;28;20458;-73
2023/01/19 08:36:33;;;;;;;5.40;2.40;;;2.40;99.90;;;;;;4956106;28;20450;-73
2023/01/19 08:39:00;;;;;;;1.63;1.13;;;2.40;99.90;;;;;;4958671;28;20447;-75
2023/01/19 08:41:29;;;;;;;0.50;0.10;;;2.50;99.90;;;;;;4955363;28;20471;-74
2023/01/19 08:43:57;;;;;;;0.50;0.30;;;2.50;99.90;;;;;;4956164;28;20578;-74
2023/01/19 08:46:26;;;;;;;3.40;0.73;;;2.60;99.90;;;;;;4955516;28;20914;-73
2023/01/19 08:48:54;;;;;;;0.50;0.10;;;2.50;99.90;;;;;;4955697;28;20900;-73
2023/01/19 08:51:22;;;;;;;0.50;0.40;;;2.60;99.90;;;;;;4955437;28;20816;-73
2023/01/19 08:53:50;;;;;;;1.00;0.97;;;2.60;99.90;;;;;;4956307;28;20534;-73
2023/01/19 08:56:18;;;;;;;0.70;0.37;;;2.70;99.90;;;;;;4955621;28;20462;-74
2023/01/19 08:58:47;;;;;;;3.90;1.73;;;2.70;99.90;;;;;;4955488;28;20467;-73
2023/01/19 09:01:36;;;;;;;0.50;0.10;;;2.90;99.90;;;;;;4956011;28;20475;-73
2023/01/19 09:04:05;;;;;;;0.50;0.10;;;2.90;99.90;;;;;;4955770;28;20486;-74
2023/01/19 09:06:33;;;;;;;0.50;0.10;;;3.00;99.90;;;;;;4955624;28;20454;-73
2023/01/19 09:09:01;;;;;;;1.83;1.67;;;;;;;;;;4955091;28;20506;-73
2023/01/19 09:11:29;;;;;;;2.30;2.10;;;2.90;99.90;;;;;;4955064;28;20818;-73
2023/01/19 09:13:57;;;;;;;1.13;1.03;;;2.90;99.90;;;;;;4953600;29;20503;-72
2023/01/19 09:16:27;;;;;;;0.50;0.20;;;2.90;99.90;;;;;;4955524;29;20459;-73
2023/01/19 09:18:57;;;;;;;0.50;0.10;;;2.90;99.90;;;;;;4955920;29;20453;-74
2023/01/19 09:21:25;;;;;;;3.33;1.70;;;3.00;99.90;;;;;;4955243;28;20475;-74
2023/01/19 09:23:53;;;;;;;0.50;0.20;;;3.00;99.90;;;;;;4955453;29;20454;-73
2023/01/19 09:26:22;;;;;;;2.60;0.60;;;3.10;99.90;;;;;;4955332;29;20454;-73
2023/01/19 09:28:50;;;;;;;5.27;4.83;;;3.10;99.90;;;;;;4954996;29;20522;-72
2023/01/19 09:31:18;;;;;;;1.60;1.27;;;3.20;99.90;;;;;;4956390;28;20470;-73
2023/01/19 09:33:46;;;;;;;5.57;4.67;;;3.10;99.90;;;;;;4955354;29;20550;-73
2023/01/19 09:36:15;;;;;;;1.23;1.23;;;3.00;99.90;;;;;;4955751;29;20447;-73
2023/01/19 09:38:43;;;;;;;2.53;1.77;;;3.20;99.90;;;;;;4961537;29;20454;-73
2023/01/19 09:41:17;;;;;;;2.43;1.80;;;3.30;99.90;;;;;;4967122;28;20469;-74
2023/01/19 09:43:47;;;;;;;2.80;2.60;;;3.40;99.90;;;;;;4946349;29;20451;-73
2023/01/19 09:46:19;;;;;;;3.13;2.37;;;3.40;99.90;;;;;;4942899;29;20539;-74
2023/01/19 09:48:50;;;;;;;4.00;2.00;;;3.30;99.90;;;;;;4938283;29;20479;-74
2023/01/19 09:51:21;;;;;;;3.90;3.33;;;3.30;99.90;;;;;;4938540;29;20504;-73
2023/01/19 09:53:59;;;;;;;3.37;1.30;;;3.30;99.90;;;;;;4938124;29;20475;-70
2023/01/19 09:56:29;;;;;;;15.70;1.63;;;3.30;99.90;;;;;;4938234;29;20510;-73
2023/01/19 09:58:59;;;;;;;0.97;0.97;;;3.30;99.90;;;;;;4940968;29;20452;-73
2023/01/19 10:01:34;;;;;;;3.73;2.13;;;3.50;99.90;;;;;;4941251;29;20483;-73
2023/01/19 10:04:29;;;;;;;4.10;2.60;;;3.60;99.90;;;;;;4939553;29;20515;-73
2023/01/19 10:07:09;;;;;;;2.53;2.33;;;3.80;99.90;;;;;;4941209;29;20448;-73
2023/01/19 10:09:48;;;;;;;4.63;2.43;;;3.80;99.90;;;;;;4954804;29;20474;-73
2023/01/19 10:12:26;;;;;;;4.87;2.73;;;3.80;99.90;;;;;;4958795;28;20466;-75
2023/01/19 10:15:03;;;;;;;1.80;1.70;;;3.60;99.90;;;;;;4960271;29;20949;-73
2023/01/19 10:17:44;;;;;;;2.87;0.87;;;3.60;99.90;;;;;;4968841;29;20454;-73
2023/01/19 10:20:19;;;;;;;0.50;0.20;;;3.60;99.90;;;;;;4965006;29;20458;-72
2023/01/19 10:22:50;;;;;;;1.83;1.37;;;3.70;99.90;;;;;;4960884;28;20479;-73
2023/01/19 10:25:22;;;;;;;3.67;1.53;;;3.80;99.90;;;;;;4959107;29;20509;-72
2023/01/19 10:27:50;;;;;;;1.67;0.97;;;3.80;99.90;;;;;;4958053;29;20494;-73
2023/01/19 10:30:22;;;;;;;1.57;1.40;;;3.70;99.90;;;;;;4960635;29;20487;-72
2023/01/19 10:32:51;;;;;;;0.50;0.20;;;;;;;;;;4958878;28;21001;-74
2023/01/19 10:35:24;;;;;;;4.43;4.03;;;3.60;99.90;;;;;;4959260;28;20443;-74
2023/01/19 10:37:56;;;;;;;0.50;0.20;;;3.60;99.90;;;;;;4958504;29;20450;-73
2023/01/19 10:40:29;;;;;;;0.70;0.60;;;;;;;;;;4957709;28;20942;-73
2023/01/19 10:42:57;;;;;;;0.90;0.30;;;3.50;99.90;;;;;;4960165;28;20542;-72
2023/01/19 10:45:28;;;;;;;4.47;4.13;;;3.50;99.90;;;;;;4959963;29;20458;-74
2023/01/19 10:48:01;;;;;;;0.50;0.10;;;3.50;99.90;;;;;;4967137;29;20457;-73
2023/01/19 10:50:31;;;;;;;1.00;0.87;;;3.60;99.90;;;;;;4969908;28;20479;-73
2023/01/19 10:53:04;;;;;;;1.70;1.03;;;3.60;99.90;;;;;;4959460;28;20459;-74
2023/01/19 10:55:36;;;;;;;2.77;1.47;;;3.50;99.90;;;;;;4959757;29;20817;-74
2023/01/19 10:58:06;;;;;;;1.60;1.50;;;3.50;99.90;;;;;;4958880;29;20450;-72
2023/01/19 11:00:36;;;;;;;1.60;1.17;;;3.40;99.90;;;;;;4957864;28;20510;-73
2023/01/19 11:03:20;;;;;;;2.73;2.53;;;3.40;99.90;;;;;;4958015;29;20457;-74
2023/01/19 11:05:48;;;;;;;0.50;0.10;;;3.50;99.90;;;;;;4957759;28;20447;-73
2023/01/19 11:08:28;;;;;;;1.03;0.77;;;3.50;99.90;;;;;;4957912;29;20552;-73
2023/01/19 11:11:01;;;;;;;0.50;0.20;;;3.50;99.90;;;;;;4957299;28;20498;-73
2023/01/19 11:13:29;;;;;;;1.90;1.03;;;3.50;99.90;;;;;;4958775;28;20549;-73
2023/01/19 11:15:59;;;;;;;2.80;1.87;;;3.50;99.90;;;;;;4988369;23;20549;-68
2023/01/19 11:18:29;;;;;;;16.80;15.17;;;3.50;99.90;;;;;;4994424;28;20485;-70
2023/01/19 11:21:01;;;;;;;4.47;1.73;;;3.30;99.90;;;;;;4993687;28;20935;-68
2023/01/19 11:23:33;;;;;;;0.50;0.20;;;3.20;99.90;;;;;;4994023;28;20527;-70
2023/01/19 11:26:05;;;;;;;3.03;2.80;;;3.20;99.90;;;;;;4981870;28;20517;-69
2023/01/19 11:28:36;;;;;;;0.90;0.60;;;3.20;99.90;;;;;;4974376;28;20454;-69
2023/01/19 11:31:18;;;;;;;0.50;0.23;;;3.20;99.90;;;;;;4974060;28;20548;-69
2023/01/19 11:33:50;;;;;;;0.50;0.40;;;3.30;99.90;;;;;;4974533;28;20457;-70
2023/01/19 11:36:20;;;;;;;0.60;0.30;;;3.40;99.90;;;;;;4974110;28;20470;-69
2023/01/19 11:38:51;;;;;;;1.03;1.00;;;3.40;99.90;;;;;;4974010;28;20446;-71
2023/01/19 11:41:21;;;;;;;0.70;0.53;;;3.40;99.90;;;;;;4974233;28;20855;-68
2023/01/19 11:43:53;;;;;;;0.83;0.40;;;3.40;99.90;;;;;;4974601;28;20450;-72
2023/01/19 11:46:23;;;;;;;3.60;2.37;;;3.30;99.90;;;;;;4974239;28;20492;-69
2023/01/19 11:49:00;;;;;;;4.53;2.83;;;3.20;99.90;;;;;;4974216;28;20462;-70
2023/01/19 11:51:34;;;;;;;3.00;1.87;;;3.10;99.90;;;;;;4973723;28;20505;-69
2023/01/19 11:54:14;;;;;;;8.37;1.13;;;3.00;99.90;;;;;;4973959;28;20454;-68
2023/01/19 11:56:43;;;;;;;1.23;1.13;;;3.10;99.90;;;;;;4974175;28;20493;-68
2023/01/19 11:59:12;;;;;;;0.67;0.53;;;3.10;99.90;;;;;;4973922;28;20944;-70
2023/01/19 12:01:50;;;;;;;2.23;2.13;;;3.00;99.90;;;;;;4973733;28;20521;-71
2023/01/19 12:04:23;;;;;;;1.13;0.57;;;3.00;99.90;;;;;;4973043;28;20959;-67
2023/01/19 12:06:54;;;;;;;1.23;0.73;;;3.00;99.90;;;;;;4974304;28;20840;-69
2023/01/19 12:09:27;;;;;;;2.50;2.30;;;3.00;99.90;;;;;;4973845;28;20453;-69
2023/01/19 12:12:00;;;;;;;0.60;0.43;;;3.20;99.90;;;;;;4973630;28;20454;-68
2023/01/19 12:14:34;;;;;;;2.53;0.87;;;3.20;99.90;;;;;;4973814;28;20777;-70
2023/01/19 12:17:04;;;;;;;1.37;1.20;;;3.20;99.90;;;;;;4973370;28;20458;-70
2023/01/19 12:19:42;;;;;;;3.37;1.47;;;3.20;99.90;;;;;;4973618;28;20858;-71
2023/01/19 12:22:15;;;;;;;0.60;0.40;;;3.10;99.90;;;;;;4973292;28;20446;-69
2023/01/19 12:24:54;;;;;;;2.83;2.63;;;3.20;99.90;;;;;;4973218;28;20446;-69
2023/01/19 12:27:31;;;;;;;0.90;0.80;;;3.20;99.90;;;;;;4973602;28;20444;-69
2023/01/19 12:29:59;;;;;;;0.60;0.30;;;3.10;99.90;;;;;;4973108;28;20902;-69
2023/01/19 12:32:35;;;;;;;0.87;0.87;;;3.10;99.90;;;;;;4973806;28;20446;-70
2023/01/19 12:35:03;;;;;;;0.50;0.20;;;3.20;99.90;;;;;;4972983;28;20470;-70
2023/01/19 12:37:39;;;;;;;0.73;0.47;;;3.20;99.90;;;;;;4973760;28;20450;-69
2023/01/19 12:40:25;;;;;;;0.53;0.23;;;3.30;99.90;;;;;;4972944;28;20492;-70
2023/01/19 12:42:59;;;;;;;0.50;0.10;;;3.40;99.90;;;;;;4973174;28;20446;-69
2023/01/19 12:45:33;;;;;;;0.50;0.10;;;3.60;99.90;;;;;;4972976;28;20473;-69
2023/01/19 12:48:02;;;;;;;1.83;1.70;;;3.60;99.90;;;;;;4973707;28;20446;-68
2023/01/19 12:50:37;;;;;;;3.87;2.63;;;3.40;99.90;;;;;;4973923;28;20480;-70
2023/01/19 12:53:15;;;;;;;2.73;2.03;;;3.10;99.90;;;;;;4974239;28;20445;-70
2023/01/19 12:55:46;;;;;;;0.50;0.23;;;3.10;99.90;;;;;;4973860;28;20741;-70
2023/01/19 12:58:17;;;;;;;16.73;2.47;;;3.00;99.90;;;;;;4974295;28;20446;-70
2023/01/19 13:00:46;;;;;;;1.20;0.90;;;2.80;99.90;;;;;;4974529;28;20442;-71
2023/01/19 13:03:44;;;;;;;0.50;0.20;;;2.80;99.90;;;;;;4974296;28;20447;-69
2023/01/19 13:06:12;;;;;;;2.63;2.43;;;2.80;99.90;;;;;;4973167;28;20485;-68
2023/01/19 13:08:57;;;;;;;0.83;0.40;;;2.80;99.90;;;;;;4973521;28;20456;-68
2023/01/19 13:11:27;;;;;;;1.43;0.97;;;2.80;99.90;;;;;;4973283;28;20854;-71
2023/01/19 13:14:33;;;;;;;1.73;0.93;;;2.70;99.90;;;;;;4973094;28;20528;-71
2023/01/19 13:17:25;;;;;;;2.40;0.93;;;2.70;99.90;;;;;;4976619;28;20457;-69
2023/01/19 13:20:06;;;;;;;1.10;0.87;;;2.60;99.90;;;;;;4976871;28;20453;-71
2023/01/19 13:23:18;;;;;;;1.37;0.70;;;2.60;99.90;;;;;;4976778;28;20441;-71
2023/01/19 13:25:53;;;;;;;0.50;0.10;;;2.80;99.90;;;;;;4976645;28;20976;-69
2023/01/19 13:28:30;;;;;;;0.50;0.10;;;2.90;99.90;;;;;;4976737;28;20457;-69
2023/01/19 13:31:01;;;;;;;0.50;0.10;;;3.00;99.90;;;;;;4976382;28;20984;-70
2023/01/19 13:33:38;;;;;;;0.50;0.10;;;3.10;99.90;;;;;;4976454;28;21303;-68
2023/01/19 13:36:19;;;;;;;0.63;0.63;;;3.10;99.90;;;;;;4976630;28;20462;-69
2023/01/19 13:38:47;;;;;;;1.13;0.93;;;3.20;99.90;;;;;;4980817;28;20866;-69
2023/01/19 13:41:18;;;;;;;0.50;0.10;;;3.20;99.90;;;;;;4982211;28;20501;-68
2023/01/19 13:43:49;;;;;;;2.00;1.90;;;3.20;99.90;;;;;;4981183;28;20935;-70
2023/01/19 13:46:18;;;;;;;0.93;0.73;;;3.20;99.90;;;;;;4977861;28;20472;-70
2023/01/19 13:48:55;;;;;;;3.13;2.10;;;3.20;99.90;;;;;;4976779;28;20857;-69
2023/01/19 13:51:23;;;;;;;1.80;1.70;;;3.10;99.90;;;;;;4976043;28;20484;-68
2023/01/19 13:53:55;;;;;;;0.50;0.10;;;3.10;99.90;;;;;;4976409;28;20446;-70
2023/01/19 13:56:24;;;;;;;3.37;3.17;;;3.00;99.90;;;;;;4975927;28;20461;-68
2023/01/19 13:59:10;;;;;;;0.50;0.20;;;3.00;99.90;;;;;;4975938;28;20450;-69
2023/01/19 14:01:39;;;;;;;2.87;1.50;;;2.90;99.90;;;;;;4975899;28;20501;-70
2023/01/19 14:04:24;;;;;;;3.23;1.43;;;2.80;99.90;;;;;;4975737;28;20859;-70
2023/01/19 14:06:54;;;;;;;2.67;2.47;;;2.80;99.90;;;;;;4976076;28;20549;-71
2023/01/19 14:09:22;;;;;;;0.60;0.50;;;2.70;99.90;;;;;;4976446;28;20462;-69
2023/01/19 14:12:06;;;;;;;3.60;2.67;;;2.70;99.90;;;;;;4976332;28;20486;-66
2023/01/19 14:14:38;;;;;;;1.57;1.37;;;2.60;99.90;;;;;;4976816;28;20442;-69
2023/01/19 14:17:24;;;;;;;1.43;0.83;;;2.60;99.90;;;;;;4976270;28;20442;-70
2023/01/19 14:19:54;;;;;;;0.80;0.50;;;2.50;99.90;;;;;;4975746;28;20520;-71
2023/01/19 14:22:36;;;;;;;1.83;1.50;;;2.60;99.90;;;;;;4975645;28;20438;-71
2023/01/19 14:25:28;;;;;;;0.50;0.10;;;2.70;99.90;;;;;;4975659;28;20981;-70
2023/01/19 14:28:38;;;;;;;0.50;0.10;;;2.80;99.90;;;;;;4974782;28;20446;-69
2023/01/19 14:31:21;;;;;;;0.50;0.10;;;2.90;99.90;;;;;;4974955;28;21012;-68
2023/01/19 14:33:50;;;;;;;0.50;0.10;;;3.00;99.90;;;;;;4975065;28;20509;-69
2023/01/19 14:36:27;;;;;;;1.60;0.83;;;3.00;99.90;;;;;;4975273;28;20466;-70
2023/01/19 14:38:57;;;;;;;2.20;2.10;;;3.00;99.90;;;;;;4975224;28;20449;-69
2023/01/19 14:41:30;;;;;;;0.50;0.40;;;3.00;99.90;;;;;;4974956;28;20446;-69
2023/01/19 14:43:59;;;;;;;0.70;0.70;;;3.00;99.90;;;;;;4974817;28;20450;-69
2023/01/19 14:46:29;;;;;;;0.50;0.10;;;4.00;99.90;;;;;;4975128;28;20478;-69
2023/01/19 14:49:02;;;;;;;0.67;0.37;;;3.10;99.90;;;;;;4975165;28;20541;-68
2023/01/19 14:51:31;;;;;;;0.50;0.10;;;3.00;99.90;;;;;;4974682;28;20477;-70
2023/01/19 14:54:01;;;;;;;0.90;0.70;;;3.00;99.90;;;;;;4974721;28;20512;-69
2023/01/19 14:56:31;;;;;;;0.50;0.20;;;3.00;99.90;;;;;;4974613;28;20469;-69
2023/01/19 14:59:01;;;;;;;3.87;3.57;;;3.00;99.90;;;;;;4974904;28;20443;-69
2023/01/19 15:01:30;;;;;;;0.50;0.10;;;2.90;99.90;;;;;;4974465;28;20450;-68
2023/01/19 15:03:58;;;;;;;0.70;0.33;;;2.90;99.90;;;;;;4974748;28;20439;-69
2023/01/19 15:06:26;;;;;;;0.50;0.10;;;2.90;99.90;;;;;;4974654;28;20855;-70
2023/01/19 15:08:55;;;;;;;0.50;0.10;;;2.90;99.90;;;;;;4974389;28;20454;-70
2023/01/19 15:11:26;;;;;;;3.97;1.70;;;2.90;99.90;;;;;;4973998;28;20518;-69
2023/01/19 15:13:55;;;;;;;0.50;0.20;;;2.90;99.90;;;;;;4974622;28;20492;-69
2023/01/19 15:16:23;;;;;;;0.50;0.10;;;2.90;99.90;;;;;;4973985;28;20474;-69
2023/01/19 15:18:52;;;;;;;0.60;0.37;;;2.90;99.90;;;;;;4974517;28;20802;-68
2023/01/19 15:21:25;;;;;;;0.50;0.30;;;2.90;99.90;;;;;;4973865;28;20969;-69
2023/01/19 15:23:53;;;;;;;0.77;0.40;;;2.90;99.90;;;;;;4974369;28;20513;-70
2023/01/19 15:26:23;;;;;;;0.50;0.10;;;2.90;99.90;;;;;;4974129;28;20834;-70
2023/01/19 15:28:51;;;;;;;0.57;0.37;;;2.90;99.90;;;;;;4974095;28;20465;-69
2023/01/19 15:31:21;;;;;;;0.50;0.10;;;2.80;99.90;;;;;;4974154;28;20478;-69
2023/01/19 15:33:49;;;;;;;0.50;0.10;;;2.70;99.90;;;;;;4974069;28;20525;-69
2023/01/19 15:36:22;;;;;;;1.03;0.73;;;2.80;99.90;;;;;;4974298;28;20462;-69
2023/01/19 15:38:50;;;;;;;0.60;0.43;;;2.80;99.90;;;;;;4973975;28;20454;-70
2023/01/19 15:41:23;;;;;;;2.90;0.87;;;2.80;99.90;;;;;;4973847;28;20464;-69
2023/01/19 15:43:51;;;;;;;0.60;0.20;;;2.70;99.90;;;;;;4973729;28;20504;-68
2023/01/19 15:46:20;;;;;;;3.80;3.60;;;2.70;99.90;;;;;;4973734;28;20474;-69
2023/01/19 15:48:49;;;;;;;0.50;0.30;;;2.70;99.90;;;;;;4973826;28;20469;-68
2023/01/19 15:51:19;;;;;;;0.50;0.10;;;2.70;99.90;;;;;;4973970;28;20442;-69
2023/01/19 15:53:48;;;;;;;0.50;0.30;;;2.70;99.90;;;;;;4974357;28;20879;-69
2023/01/19 15:56:17;;;;;;;0.50;0.10;;;2.70;99.90;;;;;;4974374;28;20465;-69
2023/01/19 15:58:45;;;;;;;0.50;0.10;;;2.70;99.90;;;;;;4974224;28;20481;-69
2023/01/19 16:01:14;;;;;;;0.50;0.10;;;2.80;99.90;;;;;;4974395;28;20440;-69
2023/01/19 16:03:43;;;;;;;1.27;0.77;;;;;;;;;;4974347;28;20481;-69
2023/01/19 16:06:11;;;;;;;2.73;2.53;;;2.80;99.90;;;;;;4974052;28;20510;-70
2023/01/19 16:08:40;;;;;;;0.50;0.30;;;2.80;99.90;;;;;;4973729;28;20434;-68
2023/01/19 16:11:11;;;;;;;2.30;1.83;;;2.80;99.90;;;;;;4973583;28;20446;-69
2023/01/19 16:13:39;;;;;;;0.83;0.67;;;2.80;99.90;;;;;;4973676;28;20489;-71
2023/01/19 16:16:12;;;;;;;0.50;0.10;;;2.90;99.90;;;;;;4973571;28;20485;-70
2023/01/19 16:18:40;;;;;;;1.10;1.10;;;;;;;;;;4974055;28;20454;-70
2023/01/19 16:21:08;;;;;;;0.50;0.20;;;2.90;99.90;;;;;;4973720;28;20458;-69
2023/01/19 16:23:36;;;;;;;0.50;0.10;;;2.90;99.90;;;;;;4974435;28;20500;-69
2023/01/19 16:26:07;;;;;;;3.47;1.27;;;3.00;99.90;;;;;;4973782;28;20462;-70
2023/01/19 16:28:36;;;;;;;0.50;0.10;;;2.90;99.90;;;;;;4973763;28;20503;-69
2023/01/19 16:31:05;;;;;;;0.50;0.10;;;2.90;99.90;;;;;;4972039;28;20458;-69
2023/01/19 16:33:32;;;;;;;0.50;0.20;;;2.90;99.90;;;;;;4971869;28;20485;-70
2023/01/19 16:36:17;;;;;;;0.83;0.83;;;2.90;99.90;;;;;;4973743;28;20462;-71
2023/01/19 16:38:45;;;;;;;0.50;0.10;;;2.90;99.90;;;;;;4973935;28;20461;-70
2023/01/19 16:41:14;;;;;;;0.50;0.10;;;2.80;99.90;;;;;;4973167;28;20945;-71
2023/01/19 16:43:42;;;;;;;0.50;0.10;;;2.90;99.90;;;;;;4965559;28;20493;-69
2023/01/19 16:46:19;;;;;;;0.50;0.20;;;2.90;99.90;;;;;;4972792;28;20462;-71
2023/01/19 16:48:47;;;;;;;1.00;0.60;;;2.90;99.90;;;;;;4973223;28;21044;-70
2023/01/19 16:51:15;;;;;;;0.50;0.10;;;2.90;99.90;;;;;;4970444;28;20474;-71
2023/01/19 16:53:42;;;;;;;0.50;0.10;;;3.00;99.90;;;;;;4971218;28;20492;-70
2023/01/19 16:56:12;;;;;;;0.50;0.10;;;2.90;99.90;;;;;;4973280;28;20471;-71
2023/01/19 16:58:42;;;;;;;0.67;0.50;;;2.90;99.90;;;;;;4969413;28;20525;-68
2023/01/19 17:01:11;;;;;;;0.50;0.10;;;2.90;99.90;;;;;;4972616;28;20970;-69
2023/01/19 17:03:39;;;;;;;0.50;0.10;;;2.90;99.90;;;;;;4972705;28;20439;-70
2023/01/19 17:06:08;;;;;;;0.50;0.10;;;2.90;99.90;;;;;;4973062;28;20473;-71
2023/01/19 17:08:36;;;;;;;1.23;1.07;;;3.00;99.90;;;;;;4967496;28;20469;-70
2023/01/19 17:11:09;;;;;;;0.60;0.30;;;3.00;99.90;;;;;;4973416;28;20534;-70
2023/01/19 17:13:38;;;;;;;3.23;1.73;;;3.00;99.90;;;;;;4973112;28;20492;-70
2023/01/19 17:16:08;;;;;;;0.80;0.60;;;3.00;99.90;;;;;;4973953;28;20497;-72
2023/01/19 17:18:36;;;;;;;1.63;1.53;;;2.90;99.90;;;;;;4968769;28;20517;-71
2023/01/19 17:21:06;;;;;;;0.50;0.10;;;2.90;99.90;;;;;;4974106;28;20460;-71